sensor_id;sensor_type;location;lat;lon;timestamp;P1;durP1;ratioP1;P2;durP2;ratioP2
48935;SDS011;34745;52.276;10.528;2023-02-16T00:01:01;29.30;;;18.73;;
48935;SDS011;34745;52.276;10.528;2023-02-16T00:03:38;30.53;;;20.87;;
48935;SDS011;34745;52.276;10.528;2023-02-16T00:06:06;34.47;;;21.33;;
48935;SDS011;34745;52.276;10.528;2023-02-16T00:08:33;30.83;;;19.93;;
48935;SDS011;34745;52.276;10.528;2023-02-16T00:11:01;31.83;;;20.53;;
48935;SDS011;34745;52.276;10.528;2023-02-16T00:13:46;29.40;;;18.57;;
48935;SDS011;34745;52.276;10.528;2023-02-16T00:16:14;30.17;;;20.10;;
48935;SDS011;34745;52.276;10.528;2023-02-16T00:18:43;31.40;;;20.23;;
48935;SDS011;34745;52.276;10.528;2023-02-16T00:21:11;33.37;;;20.67;;
48935;SDS011;34745;52.276;10.528;2023-02-16T00:23:38;32.07;;;19.10;;
48935;SDS011;34745;52.276;10.528;2023-02-16T00:26:11;32.73;;;21.00;;
48935;SDS011;34745;52.276;10.528;2023-02-16T00:28:40;32.53;;;20.20;;
48935;SDS011;34745;52.276;10.528;2023-02-16T00:31:10;32.83;;;20.33;;
48935;SDS011;34745;52.276;10.528;2023-02-16T00:33:43;36.53;;;20.70;;
48935;SDS011;34745;52.276;10.528;2023-02-16T00:36:11;33.83;;;20.20;;
48935;SDS011;34745;52.276;10.528;2023-02-16T00:38:38;37.83;;;21.60;;
48935;SDS011;34745;52.276;10.528;2023-02-16T00:41:05;30.47;;;20.83;;
48935;SDS011;34745;52.276;10.528;2023-02-16T00:44:04;33.93;;;22.03;;
48935;SDS011;34745;52.276;10.528;2023-02-16T00:46:31;35.00;;;22.17;;
48935;SDS011;34745;52.276;10.528;2023-02-16T00:48:58;32.30;;;21.10;;
48935;SDS011;34745;52.276;10.528;2023-02-16T00:51:26;37.37;;;21.90;;
48935;SDS011;34745;52.276;10.528;2023-02-16T00:53:53;36.83;;;22.67;;
48935;SDS011;34745;52.276;10.528;2023-02-16T00:56:22;37.37;;;22.70;;
48935;SDS011;34745;52.276;10.528;2023-02-16T00:58:49;37.73;;;21.97;;
48935;SDS011;34745;52.276;10.528;2023-02-16T01:01:19;36.90;;;22.73;;
48935;SDS011;34745;52.276;10.528;2023-02-16T01:03:54;36.40;;;23.33;;
48935;SDS011;34745;52.276;10.528;2023-02-16T01:06:21;42.47;;;24.10;;
48935;SDS011;34745;52.276;10.528;2023-02-16T01:09:27;39.30;;;23.87;;
48935;SDS011;34745;52.276;10.528;2023-02-16T01:12:15;36.50;;;23.17;;
48935;SDS011;34745;52.276;10.528;2023-02-16T01:14:44;38.63;;;24.43;;
48935;SDS011;34745;52.276;10.528;2023-02-16T01:17:16;36.03;;;22.80;;
48935;SDS011;34745;52.276;10.528;2023-02-16T01:19:43;40.00;;;24.50;;
48935;SDS011;34745;52.276;10.528;2023-02-16T01:22:10;43.63;;;25.30;;
48935;SDS011;34745;52.276;10.528;2023-02-16T01:24:37;41.53;;;24.83;;
48935;SDS011;34745;52.276;10.528;2023-02-16T01:27:04;40.07;;;24.23;;
48935;SDS011;34745;52.276;10.528;2023-02-16T01:29:36;39.37;;;24.10;;
48935;SDS011;34745;52.276;10.528;2023-02-16T01:32:03;39.13;;;25.50;;
48935;SDS011;34745;52.276;10.528;2023-02-16T01:34:31;42.03;;;24.87;;
48935;SDS011;34745;52.276;10.528;2023-02-16T01:36:58;40.17;;;25.13;;
48935;SDS011;34745;52.276;10.528;2023-02-16T01:39:25;39.70;;;24.87;;
48935;SDS011;34745;52.276;10.528;2023-02-16T01:41:55;40.07;;;24.43;;
48935;SDS011;34745;52.276;10.528;2023-02-16T01:44:47;41.83;;;25.13;;
48935;SDS011;34745;52.276;10.528;2023-02-16T01:47:22;39.00;;;25.03;;
48935;SDS011;34745;52.276;10.528;2023-02-16T01:49:58;39.87;;;25.20;;
48935;SDS011;34745;52.276;10.528;2023-02-16T01:52:33;40.97;;;24.67;;
48935;SDS011;34745;52.276;10.528;2023-02-16T01:55:09;41.37;;;25.47;;
48935;SDS011;34745;52.276;10.528;2023-02-16T01:57:44;43.77;;;25.07;;
48935;SDS011;34745;52.276;10.528;2023-02-16T02:00:18;46.27;;;26.07;;
48935;SDS011;34745;52.276;10.528;2023-02-16T02:02:53;44.37;;;25.77;;
48935;SDS011;34745;52.276;10.528;2023-02-16T02:05:41;41.03;;;25.47;;
48935;SDS011;34745;52.276;10.528;2023-02-16T02:08:11;44.70;;;26.67;;
48935;SDS011;34745;52.276;10.528;2023-02-16T02:10:45;44.53;;;25.90;;
48935;SDS011;34745;52.276;10.528;2023-02-16T02:13:20;43.53;;;26.43;;
48935;SDS011;34745;52.276;10.528;2023-02-16T02:15:55;45.73;;;26.70;;
48935;SDS011;34745;52.276;10.528;2023-02-16T02:18:23;44.23;;;25.90;;
48935;SDS011;34745;52.276;10.528;2023-02-16T02:20:54;45.13;;;27.97;;
48935;SDS011;34745;52.276;10.528;2023-02-16T02:24:02;46.60;;;27.10;;
48935;SDS011;34745;52.276;10.528;2023-02-16T02:27:12;46.40;;;26.87;;
48935;SDS011;34745;52.276;10.528;2023-02-16T02:29:49;47.47;;;27.23;;
48935;SDS011;34745;52.276;10.528;2023-02-16T02:32:38;44.33;;;27.63;;
48935;SDS011;34745;52.276;10.528;2023-02-16T02:35:19;46.30;;;29.17;;
48935;SDS011;34745;52.276;10.528;2023-02-16T02:37:56;47.43;;;27.73;;
48935;SDS011;34745;52.276;10.528;2023-02-16T02:40:34;51.53;;;28.37;;
48935;SDS011;34745;52.276;10.528;2023-02-16T02:43:13;46.40;;;28.53;;
48935;SDS011;34745;52.276;10.528;2023-02-16T02:45:46;52.67;;;29.17;;
48935;SDS011;34745;52.276;10.528;2023-02-16T02:48:16;44.53;;;28.83;;
48935;SDS011;34745;52.276;10.528;2023-02-16T02:50:45;49.07;;;29.37;;
48935;SDS011;34745;52.276;10.528;2023-02-16T02:53:34;50.10;;;29.47;;
48935;SDS011;34745;52.276;10.528;2023-02-16T02:56:04;51.93;;;29.77;;
48935;SDS011;34745;52.276;10.528;2023-02-16T02:58:54;51.60;;;28.93;;
48935;SDS011;34745;52.276;10.528;2023-02-16T03:01:44;48.47;;;29.90;;
48935;SDS011;34745;52.276;10.528;2023-02-16T03:04:16;49.50;;;29.83;;
48935;SDS011;34745;52.276;10.528;2023-02-16T03:06:47;48.30;;;30.23;;
48935;SDS011;34745;52.276;10.528;2023-02-16T03:09:17;51.50;;;30.03;;
48935;SDS011;34745;52.276;10.528;2023-02-16T03:11:46;52.17;;;30.30;;
48935;SDS011;34745;52.276;10.528;2023-02-16T03:14:36;55.03;;;31.20;;
48935;SDS011;34745;52.276;10.528;2023-02-16T03:17:09;55.13;;;31.57;;
48935;SDS011;34745;52.276;10.528;2023-02-16T03:19:57;54.27;;;32.00;;
48935;SDS011;34745;52.276;10.528;2023-02-16T03:22:45;50.87;;;30.03;;
48935;SDS011;34745;52.276;10.528;2023-02-16T03:25:31;55.33;;;31.37;;
48935;SDS011;34745;52.276;10.528;2023-02-16T03:28:21;55.43;;;31.17;;
48935;SDS011;34745;52.276;10.528;2023-02-16T03:31:10;57.17;;;32.60;;
48935;SDS011;34745;52.276;10.528;2023-02-16T03:33:40;56.97;;;32.37;;
48935;SDS011;34745;52.276;10.528;2023-02-16T03:36:08;55.83;;;31.47;;
48935;SDS011;34745;52.276;10.528;2023-02-16T03:38:36;59.73;;;32.63;;
48935;SDS011;34745;52.276;10.528;2023-02-16T03:41:05;53.00;;;32.23;;
48935;SDS011;34745;52.276;10.528;2023-02-16T03:43:32;57.20;;;33.50;;
48935;SDS011;34745;52.276;10.528;2023-02-16T03:45:59;59.87;;;33.43;;
48935;SDS011;34745;52.276;10.528;2023-02-16T03:48:28;55.73;;;32.87;;
48935;SDS011;34745;52.276;10.528;2023-02-16T03:50:55;53.40;;;31.10;;
48935;SDS011;34745;52.276;10.528;2023-02-16T03:53:22;54.53;;;31.47;;
48935;SDS011;34745;52.276;10.528;2023-02-16T03:55:49;56.87;;;33.73;;
48935;SDS011;34745;52.276;10.528;2023-02-16T03:58:17;61.87;;;32.23;;
48935;SDS011;34745;52.276;10.528;2023-02-16T04:00:46;56.73;;;32.37;;
48935;SDS011;34745;52.276;10.528;2023-02-16T04:03:13;50.17;;;30.47;;
48935;SDS011;34745;52.276;10.528;2023-02-16T04:05:42;61.50;;;34.07;;
48935;SDS011;34745;52.276;10.528;2023-02-16T04:08:10;56.70;;;33.43;;
48935;SDS011;34745;52.276;10.528;2023-02-16T04:10:37;59.60;;;32.03;;
48935;SDS011;34745;52.276;10.528;2023-02-16T04:13:04;57.40;;;32.70;;
48935;SDS011;34745;52.276;10.528;2023-02-16T04:15:32;52.93;;;31.13;;
48935;SDS011;34745;52.276;10.528;2023-02-16T04:18:00;60.20;;;34.33;;
48935;SDS011;34745;52.276;10.528;2023-02-16T04:20:28;56.60;;;32.93;;
48935;SDS011;34745;52.276;10.528;2023-02-16T04:22:59;53.60;;;32.73;;
48935;SDS011;34745;52.276;10.528;2023-02-16T04:25:26;54.97;;;31.83;;
48935;SDS011;34745;52.276;10.528;2023-02-16T04:27:53;60.00;;;34.47;;
48935;SDS011;34745;52.276;10.528;2023-02-16T04:30:22;62.00;;;33.57;;
48935;SDS011;34745;52.276;10.528;2023-02-16T04:32:50;55.70;;;32.37;;
48935;SDS011;34745;52.276;10.528;2023-02-16T04:35:17;59.43;;;34.10;;
48935;SDS011;34745;52.276;10.528;2023-02-16T04:37:45;58.80;;;34.27;;
48935;SDS011;34745;52.276;10.528;2023-02-16T04:40:14;61.63;;;34.83;;
48935;SDS011;34745;52.276;10.528;2023-02-16T04:42:43;59.90;;;33.73;;
48935;SDS011;34745;52.276;10.528;2023-02-16T04:45:11;51.37;;;29.40;;
48935;SDS011;34745;52.276;10.528;2023-02-16T04:47:38;56.40;;;33.90;;
48935;SDS011;34745;52.276;10.528;2023-02-16T04:50:06;64.27;;;33.40;;
48935;SDS011;34745;52.276;10.528;2023-02-16T04:52:34;61.43;;;32.00;;
48935;SDS011;34745;52.276;10.528;2023-02-16T04:55:02;60.73;;;33.17;;
48935;SDS011;34745;52.276;10.528;2023-02-16T04:57:32;61.83;;;32.40;;
48935;SDS011;34745;52.276;10.528;2023-02-16T04:59:59;63.07;;;34.37;;
48935;SDS011;34745;52.276;10.528;2023-02-16T05:02:26;62.63;;;33.57;;
48935;SDS011;34745;52.276;10.528;2023-02-16T05:04:54;58.47;;;32.97;;
48935;SDS011;34745;52.276;10.528;2023-02-16T05:07:21;63.03;;;33.93;;
48935;SDS011;34745;52.276;10.528;2023-02-16T05:09:47;57.37;;;34.40;;
48935;SDS011;34745;52.276;10.528;2023-02-16T05:12:15;64.70;;;34.30;;
48935;SDS011;34745;52.276;10.528;2023-02-16T05:15:02;59.40;;;32.37;;
48935;SDS011;34745;52.276;10.528;2023-02-16T05:17:29;57.83;;;33.53;;
48935;SDS011;34745;52.276;10.528;2023-02-16T05:19:58;63.73;;;33.03;;
48935;SDS011;34745;52.276;10.528;2023-02-16T05:22:25;57.03;;;31.80;;
48935;SDS011;34745;52.276;10.528;2023-02-16T05:24:54;57.93;;;31.17;;
48935;SDS011;34745;52.276;10.528;2023-02-16T05:27:22;54.47;;;30.90;;
48935;SDS011;34745;52.276;10.528;2023-02-16T05:29:50;58.53;;;31.77;;
48935;SDS011;34745;52.276;10.528;2023-02-16T05:32:19;60.90;;;32.30;;
48935;SDS011;34745;52.276;10.528;2023-02-16T05:34:47;63.37;;;33.67;;
48935;SDS011;34745;52.276;10.528;2023-02-16T05:37:14;58.87;;;32.80;;
48935;SDS011;34745;52.276;10.528;2023-02-16T05:39:43;57.40;;;32.37;;
48935;SDS011;34745;52.276;10.528;2023-02-16T05:42:10;56.87;;;31.80;;
48935;SDS011;34745;52.276;10.528;2023-02-16T05:44:38;61.37;;;33.23;;
48935;SDS011;34745;52.276;10.528;2023-02-16T05:47:05;62.43;;;31.53;;
48935;SDS011;34745;52.276;10.528;2023-02-16T05:49:33;59.20;;;32.40;;
48935;SDS011;34745;52.276;10.528;2023-02-16T05:52:00;61.90;;;32.47;;
48935;SDS011;34745;52.276;10.528;2023-02-16T05:54:28;57.87;;;32.97;;
48935;SDS011;34745;52.276;10.528;2023-02-16T05:56:55;54.40;;;30.03;;
48935;SDS011;34745;52.276;10.528;2023-02-16T05:59:22;60.23;;;33.50;;
48935;SDS011;34745;52.276;10.528;2023-02-16T06:01:49;59.67;;;32.40;;
48935;SDS011;34745;52.276;10.528;2023-02-16T06:04:18;55.63;;;31.07;;
48935;SDS011;34745;52.276;10.528;2023-02-16T06:06:47;58.67;;;32.70;;
48935;SDS011;34745;52.276;10.528;2023-02-16T06:09:15;59.43;;;31.43;;
48935;SDS011;34745;52.276;10.528;2023-02-16T06:11:42;60.87;;;32.93;;
48935;SDS011;34745;52.276;10.528;2023-02-16T06:14:11;55.97;;;31.33;;
48935;SDS011;34745;52.276;10.528;2023-02-16T06:16:39;58.87;;;32.93;;
48935;SDS011;34745;52.276;10.528;2023-02-16T06:19:10;59.37;;;33.13;;
48935;SDS011;34745;52.276;10.528;2023-02-16T06:21:37;60.57;;;33.90;;
48935;SDS011;34745;52.276;10.528;2023-02-16T06:24:07;59.47;;;32.80;;
48935;SDS011;34745;52.276;10.528;2023-02-16T06:26:35;60.07;;;33.80;;
48935;SDS011;34745;52.276;10.528;2023-02-16T06:29:02;55.70;;;30.80;;
48935;SDS011;34745;52.276;10.528;2023-02-16T06:31:30;60.97;;;33.23;;
48935;SDS011;34745;52.276;10.528;2023-02-16T06:34:01;60.00;;;32.50;;
48935;SDS011;34745;52.276;10.528;2023-02-16T06:36:29;56.93;;;31.20;;
48935;SDS011;34745;52.276;10.528;2023-02-16T06:38:56;58.83;;;32.97;;
48935;SDS011;34745;52.276;10.528;2023-02-16T06:41:24;61.40;;;34.17;;
48935;SDS011;34745;52.276;10.528;2023-02-16T06:44:00;58.97;;;34.27;;
48935;SDS011;34745;52.276;10.528;2023-02-16T06:46:28;56.40;;;32.80;;
48935;SDS011;34745;52.276;10.528;2023-02-16T06:48:55;58.23;;;33.03;;
48935;SDS011;34745;52.276;10.528;2023-02-16T06:51:23;58.97;;;32.77;;
48935;SDS011;34745;52.276;10.528;2023-02-16T06:53:50;57.80;;;31.47;;
48935;SDS011;34745;52.276;10.528;2023-02-16T06:56:17;60.33;;;33.37;;
48935;SDS011;34745;52.276;10.528;2023-02-16T06:58:45;55.43;;;32.27;;
48935;SDS011;34745;52.276;10.528;2023-02-16T07:01:12;57.30;;;31.77;;
48935;SDS011;34745;52.276;10.528;2023-02-16T07:03:39;55.83;;;31.73;;
48935;SDS011;34745;52.276;10.528;2023-02-16T07:06:06;53.90;;;31.67;;
48935;SDS011;34745;52.276;10.528;2023-02-16T07:08:33;59.93;;;32.90;;
48935;SDS011;34745;52.276;10.528;2023-02-16T07:11:01;56.73;;;30.90;;
48935;SDS011;34745;52.276;10.528;2023-02-16T07:13:28;62.13;;;30.90;;
48935;SDS011;34745;52.276;10.528;2023-02-16T07:15:56;51.13;;;30.03;;
48935;SDS011;34745;52.276;10.528;2023-02-16T07:18:23;52.40;;;29.13;;
48935;SDS011;34745;52.276;10.528;2023-02-16T07:20:50;54.70;;;30.60;;
48935;SDS011;34745;52.276;10.528;2023-02-16T07:23:17;55.83;;;30.30;;
48935;SDS011;34745;52.276;10.528;2023-02-16T07:25:44;60.20;;;30.97;;
48935;SDS011;34745;52.276;10.528;2023-02-16T07:28:11;50.47;;;28.37;;
48935;SDS011;34745;52.276;10.528;2023-02-16T07:30:38;51.27;;;29.27;;
48935;SDS011;34745;52.276;10.528;2023-02-16T07:33:07;47.70;;;27.47;;
48935;SDS011;34745;52.276;10.528;2023-02-16T07:35:34;51.43;;;29.20;;
48935;SDS011;34745;52.276;10.528;2023-02-16T07:38:02;54.97;;;29.73;;
48935;SDS011;34745;52.276;10.528;2023-02-16T07:40:30;52.50;;;31.10;;
48935;SDS011;34745;52.276;10.528;2023-02-16T07:42:57;53.07;;;29.83;;
48935;SDS011;34745;52.276;10.528;2023-02-16T07:45:25;53.63;;;30.00;;
48935;SDS011;34745;52.276;10.528;2023-02-16T07:47:52;53.97;;;30.43;;
48935;SDS011;34745;52.276;10.528;2023-02-16T07:50:21;54.30;;;31.33;;
48935;SDS011;34745;52.276;10.528;2023-02-16T07:52:47;53.23;;;30.53;;
48935;SDS011;34745;52.276;10.528;2023-02-16T07:55:14;53.37;;;31.03;;
48935;SDS011;34745;52.276;10.528;2023-02-16T07:57:41;51.23;;;30.37;;
48935;SDS011;34745;52.276;10.528;2023-02-16T08:00:09;52.93;;;28.10;;
48935;SDS011;34745;52.276;10.528;2023-02-16T08:02:36;47.00;;;28.30;;
48935;SDS011;34745;52.276;10.528;2023-02-16T08:05:03;53.53;;;30.53;;
48935;SDS011;34745;52.276;10.528;2023-02-16T08:07:32;51.83;;;29.03;;
48935;SDS011;34745;52.276;10.528;2023-02-16T08:09:59;49.63;;;28.47;;
48935;SDS011;34745;52.276;10.528;2023-02-16T08:12:26;49.50;;;29.00;;
48935;SDS011;34745;52.276;10.528;2023-02-16T08:14:53;54.23;;;31.17;;
48935;SDS011;34745;52.276;10.528;2023-02-16T08:17:20;51.77;;;29.93;;
48935;SDS011;34745;52.276;10.528;2023-02-16T08:19:47;48.40;;;27.40;;
48935;SDS011;34745;52.276;10.528;2023-02-16T08:22:15;47.40;;;27.93;;
48935;SDS011;34745;52.276;10.528;2023-02-16T08:24:44;48.20;;;28.73;;
48935;SDS011;34745;52.276;10.528;2023-02-16T08:27:11;47.70;;;26.50;;
48935;SDS011;34745;52.276;10.528;2023-02-16T08:29:38;50.23;;;28.50;;
48935;SDS011;34745;52.276;10.528;2023-02-16T08:32:09;49.00;;;26.83;;
48935;SDS011;34745;52.276;10.528;2023-02-16T08:34:36;45.27;;;25.63;;
48935;SDS011;34745;52.276;10.528;2023-02-16T08:37:06;48.37;;;26.93;;
48935;SDS011;34745;52.276;10.528;2023-02-16T08:39:32;53.83;;;28.67;;
48935;SDS011;34745;52.276;10.528;2023-02-16T08:42:01;45.27;;;27.23;;
48935;SDS011;34745;52.276;10.528;2023-02-16T08:44:29;42.60;;;24.80;;
48935;SDS011;34745;52.276;10.528;2023-02-16T08:46:57;47.97;;;27.03;;
48935;SDS011;34745;52.276;10.528;2023-02-16T08:49:26;42.40;;;25.97;;
48935;SDS011;34745;52.276;10.528;2023-02-16T08:51:54;44.90;;;26.33;;
48935;SDS011;34745;52.276;10.528;2023-02-16T08:54:22;45.23;;;27.03;;
48935;SDS011;34745;52.276;10.528;2023-02-16T08:56:55;44.40;;;25.03;;
48935;SDS011;34745;52.276;10.528;2023-02-16T08:59:25;46.60;;;27.13;;
48935;SDS011;34745;52.276;10.528;2023-02-16T09:01:54;43.30;;;26.43;;
48935;SDS011;34745;52.276;10.528;2023-02-16T09:04:21;43.80;;;25.53;;
48935;SDS011;34745;52.276;10.528;2023-02-16T09:06:49;42.83;;;25.47;;
48935;SDS011;34745;52.276;10.528;2023-02-16T09:09:18;43.13;;;25.77;;
48935;SDS011;34745;52.276;10.528;2023-02-16T09:11:45;44.40;;;27.63;;
48935;SDS011;34745;52.276;10.528;2023-02-16T09:14:13;46.77;;;26.47;;
48935;SDS011;34745;52.276;10.528;2023-02-16T09:16:42;46.33;;;24.67;;
48935;SDS011;34745;52.276;10.528;2023-02-16T09:19:12;41.30;;;24.67;;
48935;SDS011;34745;52.276;10.528;2023-02-16T09:21:40;48.90;;;27.37;;
48935;SDS011;34745;52.276;10.528;2023-02-16T09:24:08;42.40;;;25.23;;
48935;SDS011;34745;52.276;10.528;2023-02-16T09:26:37;43.83;;;26.13;;
48935;SDS011;34745;52.276;10.528;2023-02-16T09:29:08;39.73;;;24.23;;
48935;SDS011;34745;52.276;10.528;2023-02-16T09:31:36;46.87;;;25.90;;
48935;SDS011;34745;52.276;10.528;2023-02-16T09:34:07;40.77;;;24.43;;
48935;SDS011;34745;52.276;10.528;2023-02-16T09:36:38;44.67;;;26.07;;
48935;SDS011;34745;52.276;10.528;2023-02-16T09:39:05;43.17;;;24.97;;
48935;SDS011;34745;52.276;10.528;2023-02-16T09:41:38;42.80;;;26.33;;
48935;SDS011;34745;52.276;10.528;2023-02-16T09:44:19;42.37;;;25.67;;
48935;SDS011;34745;52.276;10.528;2023-02-16T09:46:55;39.17;;;22.83;;
48935;SDS011;34745;52.276;10.528;2023-02-16T09:49:27;41.07;;;25.33;;
48935;SDS011;34745;52.276;10.528;2023-02-16T09:51:58;37.57;;;24.03;;
48935;SDS011;34745;52.276;10.528;2023-02-16T09:54:38;41.57;;;24.80;;
48935;SDS011;34745;52.276;10.528;2023-02-16T09:57:12;43.83;;;25.50;;
48935;SDS011;34745;52.276;10.528;2023-02-16T09:59:47;40.53;;;24.53;;
48935;SDS011;34745;52.276;10.528;2023-02-16T10:02:33;42.83;;;25.47;;
48935;SDS011;34745;52.276;10.528;2023-02-16T10:05:13;36.07;;;22.17;;
48935;SDS011;34745;52.276;10.528;2023-02-16T10:07:46;42.17;;;24.70;;
48935;SDS011;34745;52.276;10.528;2023-02-16T10:10:22;42.83;;;24.57;;
48935;SDS011;34745;52.276;10.528;2023-02-16T10:12:55;39.20;;;24.27;;
48935;SDS011;34745;52.276;10.528;2023-02-16T10:15:26;43.83;;;25.33;;
48935;SDS011;34745;52.276;10.528;2023-02-16T10:17:56;41.30;;;22.07;;
48935;SDS011;34745;52.276;10.528;2023-02-16T10:20:27;38.77;;;23.83;;
48935;SDS011;34745;52.276;10.528;2023-02-16T10:22:59;37.40;;;24.80;;
48935;SDS011;34745;52.276;10.528;2023-02-16T10:25:33;36.23;;;23.67;;
48935;SDS011;34745;52.276;10.528;2023-02-16T10:28:10;41.07;;;25.13;;
48935;SDS011;34745;52.276;10.528;2023-02-16T10:30:42;36.30;;;22.80;;
48935;SDS011;34745;52.276;10.528;2023-02-16T10:33:15;37.53;;;23.13;;
48935;SDS011;34745;52.276;10.528;2023-02-16T10:35:54;34.97;;;23.30;;
48935;SDS011;34745;52.276;10.528;2023-02-16T10:38:27;42.07;;;23.33;;
48935;SDS011;34745;52.276;10.528;2023-02-16T10:41:03;35.20;;;21.57;;
48935;SDS011;34745;52.276;10.528;2023-02-16T10:43:38;34.43;;;22.30;;
48935;SDS011;34745;52.276;10.528;2023-02-16T10:46:09;36.93;;;22.80;;
48935;SDS011;34745;52.276;10.528;2023-02-16T10:48:39;40.17;;;22.73;;
48935;SDS011;34745;52.276;10.528;2023-02-16T10:51:08;35.80;;;22.23;;
48935;SDS011;34745;52.276;10.528;2023-02-16T10:53:38;34.57;;;20.80;;
48935;SDS011;34745;52.276;10.528;2023-02-16T10:59:18;33.13;;;22.00;;
48935;SDS011;34745;52.276;10.528;2023-02-16T11:01:47;33.27;;;21.10;;
48935;SDS011;34745;52.276;10.528;2023-02-16T11:04:33;39.60;;;23.50;;
48935;SDS011;34745;52.276;10.528;2023-02-16T11:07:05;34.73;;;21.93;;
48935;SDS011;34745;52.276;10.528;2023-02-16T11:09:34;35.80;;;23.33;;
48935;SDS011;34745;52.276;10.528;2023-02-16T11:12:01;35.00;;;22.30;;
48935;SDS011;34745;52.276;10.528;2023-02-16T11:14:29;34.13;;;22.67;;
48935;SDS011;34745;52.276;10.528;2023-02-16T11:17:02;34.67;;;22.17;;
48935;SDS011;34745;52.276;10.528;2023-02-16T11:19:30;37.13;;;23.30;;
48935;SDS011;34745;52.276;10.528;2023-02-16T11:21:58;34.33;;;20.50;;
48935;SDS011;34745;52.276;10.528;2023-02-16T11:24:29;37.93;;;23.10;;
48935;SDS011;34745;52.276;10.528;2023-02-16T11:26:59;34.37;;;21.50;;
48935;SDS011;34745;52.276;10.528;2023-02-16T11:29:28;39.47;;;23.57;;
48935;SDS011;34745;52.276;10.528;2023-02-16T11:31:56;35.00;;;22.73;;
48935;SDS011;34745;52.276;10.528;2023-02-16T11:34:27;36.57;;;23.03;;
48935;SDS011;34745;52.276;10.528;2023-02-16T11:37:00;36.67;;;22.93;;
48935;SDS011;34745;52.276;10.528;2023-02-16T11:39:33;34.87;;;21.90;;
48935;SDS011;34745;52.276;10.528;2023-02-16T11:42:05;36.30;;;22.97;;
48935;SDS011;34745;52.276;10.528;2023-02-16T11:44:34;42.03;;;24.33;;
48935;SDS011;34745;52.276;10.528;2023-02-16T11:47:04;35.13;;;22.87;;
48935;SDS011;34745;52.276;10.528;2023-02-16T11:49:34;41.63;;;22.93;;
48935;SDS011;34745;52.276;10.528;2023-02-16T11:52:24;40.67;;;23.63;;
48935;SDS011;34745;52.276;10.528;2023-02-16T11:54:56;38.23;;;22.63;;
48935;SDS011;34745;52.276;10.528;2023-02-16T11:57:26;37.50;;;23.70;;
48935;SDS011;34745;52.276;10.528;2023-02-16T11:59:53;40.33;;;24.27;;
48935;SDS011;34745;52.276;10.528;2023-02-16T12:02:34;36.23;;;22.83;;
48935;SDS011;34745;52.276;10.528;2023-02-16T12:05:19;35.43;;;22.57;;
48935;SDS011;34745;52.276;10.528;2023-02-16T12:07:58;34.30;;;20.80;;
48935;SDS011;34745;52.276;10.528;2023-02-16T12:10:48;40.83;;;23.83;;
48935;SDS011;34745;52.276;10.528;2023-02-16T12:13:27;43.33;;;24.03;;
48935;SDS011;34745;52.276;10.528;2023-02-16T12:16:04;33.83;;;22.20;;
48935;SDS011;34745;52.276;10.528;2023-02-16T12:18:42;36.33;;;22.90;;
48935;SDS011;34745;52.276;10.528;2023-02-16T12:21:16;33.07;;;20.13;;
48935;SDS011;34745;52.276;10.528;2023-02-16T12:23:53;37.43;;;22.67;;
48935;SDS011;34745;52.276;10.528;2023-02-16T12:26:31;35.50;;;22.47;;
48935;SDS011;34745;52.276;10.528;2023-02-16T12:29:09;33.90;;;22.27;;
48935;SDS011;34745;52.276;10.528;2023-02-16T12:31:52;33.50;;;21.83;;
48935;SDS011;34745;52.276;10.528;2023-02-16T12:34:32;35.80;;;23.23;;
48935;SDS011;34745;52.276;10.528;2023-02-16T12:37:19;37.20;;;22.80;;
48935;SDS011;34745;52.276;10.528;2023-02-16T12:39:56;32.00;;;21.30;;
48935;SDS011;34745;52.276;10.528;2023-02-16T12:42:38;31.57;;;21.70;;
48935;SDS011;34745;52.276;10.528;2023-02-16T12:45:15;32.77;;;21.43;;
48935;SDS011;34745;52.276;10.528;2023-02-16T12:47:45;33.07;;;22.17;;
48935;SDS011;34745;52.276;10.528;2023-02-16T12:50:18;34.17;;;21.63;;
48935;SDS011;34745;52.276;10.528;2023-02-16T12:52:48;34.87;;;19.90;;
48935;SDS011;34745;52.276;10.528;2023-02-16T12:55:20;32.53;;;20.03;;
48935;SDS011;34745;52.276;10.528;2023-02-16T12:57:55;37.20;;;19.43;;
48935;SDS011;34745;52.276;10.528;2023-02-16T13:00:31;32.30;;;22.20;;
48935;SDS011;34745;52.276;10.528;2023-02-16T13:06:05;36.83;;;21.77;;
48935;SDS011;34745;52.276;10.528;2023-02-16T13:08:38;31.13;;;19.93;;
48935;SDS011;34745;52.276;10.528;2023-02-16T13:11:11;34.63;;;21.93;;
48935;SDS011;34745;52.276;10.528;2023-02-16T13:13:46;33.93;;;22.57;;
48935;SDS011;34745;52.276;10.528;2023-02-16T13:16:15;41.40;;;21.37;;
48935;SDS011;34745;52.276;10.528;2023-02-16T13:18:56;32.73;;;22.67;;
48935;SDS011;34745;52.276;10.528;2023-02-16T13:21:30;32.30;;;21.83;;
48935;SDS011;34745;52.276;10.528;2023-02-16T13:24:18;33.53;;;21.77;;
48935;SDS011;34745;52.276;10.528;2023-02-16T13:27:03;33.47;;;22.53;;
48935;SDS011;34745;52.276;10.528;2023-02-16T13:29:56;33.60;;;22.07;;
48935;SDS011;34745;52.276;10.528;2023-02-16T13:35:30;34.30;;;21.77;;
48935;SDS011;34745;52.276;10.528;2023-02-16T13:38:23;34.87;;;21.87;;
48935;SDS011;34745;52.276;10.528;2023-02-16T13:41:26;31.93;;;21.33;;
48935;SDS011;34745;52.276;10.528;2023-02-16T13:44:14;34.93;;;22.00;;
48935;SDS011;34745;52.276;10.528;2023-02-16T13:46:46;37.30;;;21.73;;
48935;SDS011;34745;52.276;10.528;2023-02-16T13:49:28;30.53;;;19.87;;
48935;SDS011;34745;52.276;10.528;2023-02-16T13:51:58;35.90;;;21.40;;
48935;SDS011;34745;52.276;10.528;2023-02-16T13:54:26;31.93;;;20.87;;
48935;SDS011;34745;52.276;10.528;2023-02-16T13:56:56;35.30;;;22.20;;
48935;SDS011;34745;52.276;10.528;2023-02-16T14:05:27;31.73;;;20.77;;
48935;SDS011;34745;52.276;10.528;2023-02-16T14:13:45;33.17;;;21.60;;
48935;SDS011;34745;52.276;10.528;2023-02-16T14:16:25;35.27;;;20.73;;
48935;SDS011;34745;52.276;10.528;2023-02-16T14:18:57;32.63;;;21.77;;
48935;SDS011;34745;52.276;10.528;2023-02-16T14:21:27;31.43;;;20.47;;
48935;SDS011;34745;52.276;10.528;2023-02-16T14:23:58;32.23;;;21.23;;
48935;SDS011;34745;52.276;10.528;2023-02-16T14:26:28;34.07;;;21.33;;
48935;SDS011;34745;52.276;10.528;2023-02-16T14:29:12;31.90;;;21.90;;
48935;SDS011;34745;52.276;10.528;2023-02-16T14:31:45;31.70;;;19.80;;
48935;SDS011;34745;52.276;10.528;2023-02-16T14:34:20;34.77;;;22.33;;
48935;SDS011;34745;52.276;10.528;2023-02-16T14:37:09;33.63;;;21.30;;
48935;SDS011;34745;52.276;10.528;2023-02-16T14:39:53;30.40;;;21.27;;
48935;SDS011;34745;52.276;10.528;2023-02-16T14:42:33;35.63;;;21.40;;
48935;SDS011;34745;52.276;10.528;2023-02-16T14:45:05;30.10;;;20.10;;
48935;SDS011;34745;52.276;10.528;2023-02-16T14:47:46;31.03;;;21.23;;
48935;SDS011;34745;52.276;10.528;2023-02-16T14:50:28;30.33;;;20.53;;
48935;SDS011;34745;52.276;10.528;2023-02-16T14:53:06;33.63;;;20.40;;
48935;SDS011;34745;52.276;10.528;2023-02-16T14:55:55;31.70;;;20.70;;
48935;SDS011;34745;52.276;10.528;2023-02-16T14:58:35;34.60;;;20.23;;